sensor_id;sensor_type;location;lat;lon;timestamp;pressure;altitude;pressure_sealevel;temperature;humidity
75609;BME280;64194;51.044;13.780;2022-12-18T00:03:33;102004.56;;;-7.16;79.81
75609;BME280;64194;51.044;13.780;2022-12-18T00:07:35;101998.47;;;-7.18;79.51
75609;BME280;64194;51.044;13.780;2022-12-18T00:11:37;101997.41;;;-7.23;79.57
75609;BME280;64194;51.044;13.780;2022-12-18T00:15:39;102007.50;;;-7.29;79.79
75609;BME280;64194;51.044;13.780;2022-12-18T00:19:41;102024.66;;;-7.31;79.65
75609;BME280;64194;51.044;13.780;2022-12-18T00:23:43;102030.44;;;-7.37;79.46
75609;BME280;64194;51.044;13.780;2022-12-18T00:27:45;102031.09;;;-7.42;79.21
75609;BME280;64194;51.044;13.780;2022-12-18T00:31:47;102033.47;;;-7.47;79.17
75609;BME280;64194;51.044;13.780;2022-12-18T00:35:49;102035.00;;;-7.52;78.90
75609;BME280;64194;51.044;13.780;2022-12-18T00:39:50;102043.44;;;-7.56;78.51
75609;BME280;64194;51.044;13.780;2022-12-18T00:43:53;102052.88;;;-7.56;78.99
75609;BME280;64194;51.044;13.780;2022-12-18T00:47:55;102052.63;;;-7.63;78.56
75609;BME280;64194;51.044;13.780;2022-12-18T00:51:57;102059.31;;;-7.68;78.84
75609;BME280;64194;51.044;13.780;2022-12-18T00:55:59;102066.84;;;-7.72;78.47
75609;BME280;64194;51.044;13.780;2022-12-18T01:00:00;102059.00;;;-7.75;78.43
75609;BME280;64194;51.044;13.780;2022-12-18T01:04:03;102057.25;;;-7.76;78.75
75609;BME280;64194;51.044;13.780;2022-12-18T01:08:04;102053.53;;;-7.83;78.35
75609;BME280;64194;51.044;13.780;2022-12-18T01:12:06;102063.66;;;-7.87;78.46
75609;BME280;64194;51.044;13.780;2022-12-18T01:16:08;102058.44;;;-7.89;77.80
75609;BME280;64194;51.044;13.780;2022-12-18T01:20:12;102065.00;;;-7.97;77.75
75609;BME280;64194;51.044;13.780;2022-12-18T01:24:13;102070.00;;;-8.00;77.52
75609;BME280;64194;51.044;13.780;2022-12-18T01:28:15;102080.31;;;-8.00;77.67
75609;BME280;64194;51.044;13.780;2022-12-18T01:32:17;102081.69;;;-8.08;77.72
75609;BME280;64194;51.044;13.780;2022-12-18T01:36:22;102089.97;;;-8.15;77.29
75609;BME280;64194;51.044;13.780;2022-12-18T01:40:24;102085.53;;;-8.19;77.50
75609;BME280;64194;51.044;13.780;2022-12-18T01:49:05;102080.56;;;-8.35;77.88
75609;BME280;64194;51.044;13.780;2022-12-18T01:53:14;102079.31;;;-8.43;77.71
75609;BME280;64194;51.044;13.780;2022-12-18T01:57:16;102079.06;;;-8.50;77.58
75609;BME280;64194;51.044;13.780;2022-12-18T02:01:18;102090.75;;;-8.58;78.31
75609;BME280;64194;51.044;13.780;2022-12-18T02:09:46;102085.97;;;-8.49;78.40
75609;BME280;64194;51.044;13.780;2022-12-18T02:14:13;102093.00;;;-8.44;77.92
75609;BME280;64194;51.044;13.780;2022-12-18T02:18:21;102091.22;;;-8.47;77.34
75609;BME280;64194;51.044;13.780;2022-12-18T02:26:59;102082.19;;;-8.37;77.09
75609;BME280;64194;51.044;13.780;2022-12-18T02:31:06;102088.91;;;-8.41;76.60
75609;BME280;64194;51.044;13.780;2022-12-18T02:35:15;102101.28;;;-8.32;76.48
75609;BME280;64194;51.044;13.780;2022-12-18T02:39:19;102101.41;;;-8.29;76.67
75609;BME280;64194;51.044;13.780;2022-12-18T02:43:32;102089.03;;;-8.17;76.53
75609;BME280;64194;51.044;13.780;2022-12-18T02:47:38;102099.31;;;-7.98;76.25
75609;BME280;64194;51.044;13.780;2022-12-18T02:51:55;102096.19;;;-7.91;74.00
75609;BME280;64194;51.044;13.780;2022-12-18T02:56:17;102089.25;;;-7.71;73.48
75609;BME280;64194;51.044;13.780;2022-12-18T03:00:35;102100.47;;;-7.71;73.55
75609;BME280;64194;51.044;13.780;2022-12-18T03:09:34;102094.84;;;-7.61;73.61
75609;BME280;64194;51.044;13.780;2022-12-18T03:13:49;102092.63;;;-7.51;73.36
75609;BME280;64194;51.044;13.780;2022-12-18T03:17:57;102094.41;;;-7.50;73.19
75609;BME280;64194;51.044;13.780;2022-12-18T03:22:04;102102.06;;;-7.52;72.61
75609;BME280;64194;51.044;13.780;2022-12-18T03:26:19;102109.78;;;-7.53;72.20
75609;BME280;64194;51.044;13.780;2022-12-18T03:30:29;102108.03;;;-7.74;72.82
75609;BME280;64194;51.044;13.780;2022-12-18T03:34:34;102098.88;;;-7.67;72.52
75609;BME280;64194;51.044;13.780;2022-12-18T03:38:41;102113.03;;;-7.78;73.04
75609;BME280;64194;51.044;13.780;2022-12-18T03:43:01;102111.16;;;-7.82;72.88
75609;BME280;64194;51.044;13.780;2022-12-18T03:47:22;102120.56;;;-7.83;73.18
75609;BME280;64194;51.044;13.780;2022-12-18T03:51:49;102117.91;;;-8.05;73.62
75609;BME280;64194;51.044;13.780;2022-12-18T03:55:52;102133.09;;;-8.11;74.10
75609;BME280;64194;51.044;13.780;2022-12-18T03:59:58;102120.13;;;-8.13;73.85
75609;BME280;64194;51.044;13.780;2022-12-18T04:04:15;102129.94;;;-8.25;73.76
75609;BME280;64194;51.044;13.780;2022-12-18T04:08:19;102127.59;;;-8.39;74.66
75609;BME280;64194;51.044;13.780;2022-12-18T04:12:30;102122.81;;;-8.51;75.06
75609;BME280;64194;51.044;13.780;2022-12-18T04:16:31;102132.59;;;-8.62;75.17
75609;BME280;64194;51.044;13.780;2022-12-18T04:20:36;102134.69;;;-8.72;75.62
75609;BME280;64194;51.044;13.780;2022-12-18T04:24:38;102150.72;;;-8.78;75.71
75609;BME280;64194;51.044;13.780;2022-12-18T04:28:50;102145.59;;;-8.78;76.32
75609;BME280;64194;51.044;13.780;2022-12-18T04:32:52;102142.97;;;-8.79;76.21
75609;BME280;64194;51.044;13.780;2022-12-18T04:36:55;102140.91;;;-8.86;76.90
75609;BME280;64194;51.044;13.780;2022-12-18T04:40:57;102146.81;;;-8.89;76.44
75609;BME280;64194;51.044;13.780;2022-12-18T04:45:01;102148.22;;;-8.96;76.56
75609;BME280;64194;51.044;13.780;2022-12-18T04:49:02;102149.53;;;-9.04;76.89
75609;BME280;64194;51.044;13.780;2022-12-18T04:53:04;102162.09;;;-9.10;77.06
75609;BME280;64194;51.044;13.780;2022-12-18T04:57:06;102158.72;;;-9.09;77.37
75609;BME280;64194;51.044;13.780;2022-12-18T05:01:08;102150.00;;;-9.12;77.01
75609;BME280;64194;51.044;13.780;2022-12-18T05:05:10;102148.94;;;-9.16;77.46
75609;BME280;64194;51.044;13.780;2022-12-18T05:09:12;102148.13;;;-9.15;77.36
75609;BME280;64194;51.044;13.780;2022-12-18T05:13:13;102162.41;;;-9.21;76.83
75609;BME280;64194;51.044;13.780;2022-12-18T05:17:15;102155.22;;;-9.28;76.89
75609;BME280;64194;51.044;13.780;2022-12-18T05:21:16;102152.47;;;-9.32;76.88
75609;BME280;64194;51.044;13.780;2022-12-18T05:25:19;102151.34;;;-9.38;76.79
75609;BME280;64194;51.044;13.780;2022-12-18T05:29:21;102154.63;;;-9.41;76.83
75609;BME280;64194;51.044;13.780;2022-12-18T05:33:25;102165.63;;;-9.43;76.85
75609;BME280;64194;51.044;13.780;2022-12-18T05:37:27;102157.69;;;-9.48;76.63
75609;BME280;64194;51.044;13.780;2022-12-18T05:41:29;102153.78;;;-9.57;77.04
75609;BME280;64194;51.044;13.780;2022-12-18T05:45:30;102158.84;;;-9.59;76.99
75609;BME280;64194;51.044;13.780;2022-12-18T05:49:32;102159.75;;;-9.58;77.29
75609;BME280;64194;51.044;13.780;2022-12-18T05:53:34;102159.91;;;-9.55;76.96
75609;BME280;64194;51.044;13.780;2022-12-18T05:57:36;102162.41;;;-9.57;76.95
75609;BME280;64194;51.044;13.780;2022-12-18T06:01:38;102167.44;;;-9.58;76.46
75609;BME280;64194;51.044;13.780;2022-12-18T06:05:42;102162.22;;;-9.60;76.69
75609;BME280;64194;51.044;13.780;2022-12-18T06:09:44;102170.03;;;-9.58;76.80
75609;BME280;64194;51.044;13.780;2022-12-18T06:13:46;102172.50;;;-9.60;77.18
75609;BME280;64194;51.044;13.780;2022-12-18T06:17:56;102174.22;;;-9.60;77.06
75609;BME280;64194;51.044;13.780;2022-12-18T06:21:58;102175.75;;;-9.64;77.02
75609;BME280;64194;51.044;13.780;2022-12-18T06:26:08;102188.47;;;-9.67;76.95
75609;BME280;64194;51.044;13.780;2022-12-18T06:30:11;102186.47;;;-9.73;76.98
75609;BME280;64194;51.044;13.780;2022-12-18T06:34:14;102182.78;;;-9.78;76.98
75609;BME280;64194;51.044;13.780;2022-12-18T06:38:16;102200.53;;;-9.82;76.73
75609;BME280;64194;51.044;13.780;2022-12-18T06:42:17;102199.56;;;-9.84;76.90
75609;BME280;64194;51.044;13.780;2022-12-18T06:46:19;102195.41;;;-9.82;77.46
75609;BME280;64194;51.044;13.780;2022-12-18T06:50:20;102193.94;;;-9.77;77.08
75609;BME280;64194;51.044;13.780;2022-12-18T06:54:22;102202.81;;;-9.70;77.05
75609;BME280;64194;51.044;13.780;2022-12-18T06:58:24;102208.47;;;-9.78;76.53
75609;BME280;64194;51.044;13.780;2022-12-18T07:02:26;102206.63;;;-9.80;77.73
75609;BME280;64194;51.044;13.780;2022-12-18T07:06:27;102217.72;;;-9.81;77.32
75609;BME280;64194;51.044;13.780;2022-12-18T07:10:29;102219.34;;;-9.83;76.79
75609;BME280;64194;51.044;13.780;2022-12-18T07:14:30;102222.13;;;-9.79;76.54
75609;BME280;64194;51.044;13.780;2022-12-18T07:18:32;102228.63;;;-9.69;76.63
75609;BME280;64194;51.044;13.780;2022-12-18T07:22:34;102220.28;;;-9.47;76.03
75609;BME280;64194;51.044;13.780;2022-12-18T07:26:35;102213.66;;;-9.08;76.32
75609;BME280;64194;51.044;13.780;2022-12-18T07:30:37;102220.31;;;-8.59;74.96
75609;BME280;64194;51.044;13.780;2022-12-18T07:34:39;102218.78;;;-7.97;73.59
75609;BME280;64194;51.044;13.780;2022-12-18T07:38:41;102224.56;;;-7.23;70.95
75609;BME280;64194;51.044;13.780;2022-12-18T07:42:43;102235.75;;;-6.37;67.70
75609;BME280;64194;51.044;13.780;2022-12-18T07:46:44;102231.22;;;-5.47;64.14
75609;BME280;64194;51.044;13.780;2022-12-18T07:50:46;102226.94;;;-4.68;62.26
75609;BME280;64194;51.044;13.780;2022-12-18T07:54:48;102240.66;;;-3.85;58.83
75609;BME280;64194;51.044;13.780;2022-12-18T07:58:51;102231.03;;;-3.25;56.56
75609;BME280;64194;51.044;13.780;2022-12-18T08:02:52;102229.72;;;-2.73;55.66
75609;BME280;64194;51.044;13.780;2022-12-18T08:06:54;102227.25;;;-1.88;52.61
75609;BME280;64194;51.044;13.780;2022-12-18T08:10:56;102214.91;;;-1.02;51.53
75609;BME280;64194;51.044;13.780;2022-12-18T08:14:58;102214.47;;;-0.15;49.11
75609;BME280;64194;51.044;13.780;2022-12-18T08:19:00;102194.03;;;0.22;46.71
75609;BME280;64194;51.044;13.780;2022-12-18T08:23:01;102193.91;;;1.00;45.84
75609;BME280;64194;51.044;13.780;2022-12-18T08:27:03;102196.22;;;1.91;44.99
75609;BME280;64194;51.044;13.780;2022-12-18T08:31:25;102198.72;;;1.69;43.86
75609;BME280;64194;51.044;13.780;2022-12-18T08:35:27;102204.00;;;1.82;43.44
75609;BME280;64194;51.044;13.780;2022-12-18T08:39:36;102199.03;;;2.64;42.43
75609;BME280;64194;51.044;13.780;2022-12-18T08:43:38;102196.44;;;3.21;41.04
75609;BME280;64194;51.044;13.780;2022-12-18T08:47:58;102194.09;;;4.64;38.44
75609;BME280;64194;51.044;13.780;2022-12-18T08:52:00;102196.50;;;5.85;36.29
75609;BME280;64194;51.044;13.780;2022-12-18T08:56:03;102196.09;;;6.20;35.29
75609;BME280;64194;51.044;13.780;2022-12-18T09:00:04;102197.88;;;6.81;34.91
75609;BME280;64194;51.044;13.780;2022-12-18T09:04:07;102206.97;;;7.15;34.05
75609;BME280;64194;51.044;13.780;2022-12-18T09:08:09;102204.59;;;7.50;34.03
75609;BME280;64194;51.044;13.780;2022-12-18T09:12:11;102202.63;;;7.11;34.94
75609;BME280;64194;51.044;13.780;2022-12-18T09:16:12;102201.53;;;8.16;33.54
75609;BME280;64194;51.044;13.780;2022-12-18T09:20:14;102215.25;;;8.73;33.26
75609;BME280;64194;51.044;13.780;2022-12-18T09:24:17;102224.88;;;10.13;31.47
75609;BME280;64194;51.044;13.780;2022-12-18T09:28:19;102232.38;;;10.30;30.90
75609;BME280;64194;51.044;13.780;2022-12-18T09:32:20;102227.97;;;10.86;30.21
75609;BME280;64194;51.044;13.780;2022-12-18T09:36:23;102232.81;;;9.82;32.07
75609;BME280;64194;51.044;13.780;2022-12-18T09:40:26;102230.56;;;9.99;31.81
75609;BME280;64194;51.044;13.780;2022-12-18T09:44:33;102232.31;;;9.36;33.48
75609;BME280;64194;51.044;13.780;2022-12-18T09:48:48;102222.59;;;9.99;31.76
75609;BME280;64194;51.044;13.780;2022-12-18T09:52:54;102226.09;;;9.69;32.38
75609;BME280;64194;51.044;13.780;2022-12-18T09:56:57;102214.81;;;9.61;32.57
75609;BME280;64194;51.044;13.780;2022-12-18T10:00:59;102220.88;;;10.29;30.95
75609;BME280;64194;51.044;13.780;2022-12-18T10:05:12;102201.19;;;10.05;31.84
75609;BME280;64194;51.044;13.780;2022-12-18T10:09:28;102209.75;;;9.18;32.60
75609;BME280;64194;51.044;13.780;2022-12-18T10:13:35;102195.59;;;9.53;32.29
75609;BME280;64194;51.044;13.780;2022-12-18T10:22:24;102171.84;;;9.16;32.82
75609;BME280;64194;51.044;13.780;2022-12-18T10:26:31;102171.59;;;9.25;32.69
75609;BME280;64194;51.044;13.780;2022-12-18T10:30:33;102164.59;;;8.89;33.95
75609;BME280;64194;51.044;13.780;2022-12-18T10:34:34;102151.91;;;9.97;31.30
75609;BME280;64194;51.044;13.780;2022-12-18T10:38:37;102148.66;;;9.22;32.26
75609;BME280;64194;51.044;13.780;2022-12-18T10:42:39;102149.78;;;10.65;30.70
75609;BME280;64194;51.044;13.780;2022-12-18T10:46:46;102122.97;;;11.24;29.72
75609;BME280;64194;51.044;13.780;2022-12-18T10:50:50;102130.38;;;12.99;26.53
75609;BME280;64194;51.044;13.780;2022-12-18T10:55:16;102130.53;;;12.09;28.51
75609;BME280;64194;51.044;13.780;2022-12-18T10:59:18;102131.19;;;13.63;25.77
75609;BME280;64194;51.044;13.780;2022-12-18T11:03:30;102122.75;;;13.72;26.02
75609;BME280;64194;51.044;13.780;2022-12-18T11:07:48;102145.19;;;12.86;26.36
75609;BME280;64194;51.044;13.780;2022-12-18T11:12:02;102134.78;;;12.36;27.27
75609;BME280;64194;51.044;13.780;2022-12-18T11:16:05;102125.03;;;12.35;27.31
75609;BME280;64194;51.044;13.780;2022-12-18T11:20:21;102117.84;;;11.92;27.94
75609;BME280;64194;51.044;13.780;2022-12-18T11:24:35;102097.47;;;12.58;26.98
75609;BME280;64194;51.044;13.780;2022-12-18T11:28:40;102099.22;;;12.37;27.04
75609;BME280;64194;51.044;13.780;2022-12-18T11:33:01;102104.88;;;12.72;27.16
75609;BME280;64194;51.044;13.780;2022-12-18T11:37:05;102107.88;;;12.64;26.94
75609;BME280;64194;51.044;13.780;2022-12-18T11:45:24;102097.47;;;12.36;26.93
75609;BME280;64194;51.044;13.780;2022-12-18T11:49:29;102111.53;;;12.62;27.02
75609;BME280;64194;51.044;13.780;2022-12-18T11:53:34;102098.66;;;11.59;27.77
75609;BME280;64194;51.044;13.780;2022-12-18T12:01:56;102119.28;;;12.68;26.87
75609;BME280;64194;51.044;13.780;2022-12-18T12:14:47;102117.13;;;13.19;26.11
75609;BME280;64194;51.044;13.780;2022-12-18T12:27:51;102135.25;;;11.53;28.55
75609;BME280;64194;51.044;13.780;2022-12-18T12:36:27;102144.69;;;12.33;26.70
75609;BME280;64194;51.044;13.780;2022-12-18T12:40:35;102159.44;;;12.85;25.88
75609;BME280;64194;51.044;13.780;2022-12-18T12:44:58;102167.69;;;12.79;26.18
75609;BME280;64194;51.044;13.780;2022-12-18T12:49:03;102158.72;;;11.42;28.10
75609;BME280;64194;51.044;13.780;2022-12-18T12:53:07;102155.44;;;10.82;28.53
75609;BME280;64194;51.044;13.780;2022-12-18T12:57:16;102150.28;;;8.59;32.04
75609;BME280;64194;51.044;13.780;2022-12-18T13:01:32;102140.47;;;6.35;36.60
75609;BME280;64194;51.044;13.780;2022-12-18T13:05:49;102153.16;;;6.68;36.13
75609;BME280;64194;51.044;13.780;2022-12-18T13:14:37;102131.97;;;5.44;38.54
75609;BME280;64194;51.044;13.780;2022-12-18T13:18:48;102126.38;;;4.86;39.99
75609;BME280;64194;51.044;13.780;2022-12-18T13:22:51;102137.59;;;3.83;42.65
75609;BME280;64194;51.044;13.780;2022-12-18T13:26:53;102146.53;;;2.36;46.14
75609;BME280;64194;51.044;13.780;2022-12-18T13:30:57;102141.25;;;2.06;47.66
75609;BME280;64194;51.044;13.780;2022-12-18T13:43:40;102146.34;;;1.71;49.05
75609;BME280;64194;51.044;13.780;2022-12-18T13:47:45;102130.75;;;2.09;48.11
75609;BME280;64194;51.044;13.780;2022-12-18T13:51:48;102145.56;;;1.90;48.47
75609;BME280;64194;51.044;13.780;2022-12-18T13:55:51;102140.78;;;1.12;50.64
75609;BME280;64194;51.044;13.780;2022-12-18T13:59:54;102138.97;;;0.07;54.04
75609;BME280;64194;51.044;13.780;2022-12-18T14:04:18;102150.66;;;-0.36;55.50
75609;BME280;64194;51.044;13.780;2022-12-18T14:08:20;102149.94;;;-0.87;57.70
75609;BME280;64194;51.044;13.780;2022-12-18T14:12:25;102150.34;;;-1.18;58.58
75609;BME280;64194;51.044;13.780;2022-12-18T14:16:48;102144.53;;;-1.54;60.31
75609;BME280;64194;51.044;13.780;2022-12-18T14:20:53;102150.16;;;-1.78;61.53
75609;BME280;64194;51.044;13.780;2022-12-18T14:25:15;102147.53;;;-1.81;61.25
75609;BME280;64194;51.044;13.780;2022-12-18T14:29:26;102133.50;;;-1.88;61.79
75609;BME280;64194;51.044;13.780;2022-12-18T14:33:28;102129.75;;;-2.03;62.72
75609;BME280;64194;51.044;13.780;2022-12-18T14:37:29;102119.50;;;-2.38;63.63
75609;BME280;64194;51.044;13.780;2022-12-18T14:41:31;102116.56;;;-2.55;64.25
75609;BME280;64194;51.044;13.780;2022-12-18T14:45:44;102119.72;;;-2.69;65.65
75609;BME280;64194;51.044;13.780;2022-12-18T14:49:48;102126.06;;;-2.94;66.61
75609;BME280;64194;51.044;13.780;2022-12-18T14:54:03;102128.63;;;-2.97;66.81
75609;BME280;64194;51.044;13.780;2022-12-18T14:58:14;102139.56;;;-3.10;67.15
75609;BME280;64194;51.044;13.780;2022-12-18T15:02:22;102154.28;;;-3.11;67.14
75609;BME280;64194;51.044;13.780;2022-12-18T15:06:34;102153.91;;;-3.27;67.69
75609;BME280;64194;51.044;13.780;2022-12-18T15:10:46;102143.16;;;-3.41;68.13
75609;BME280;64194;51.044;13.780;2022-12-18T15:14:48;102126.38;;;-3.55;69.14
75609;BME280;64194;51.044;13.780;2022-12-18T15:18:52;102130.56;;;-3.60;68.76
75609;BME280;64194;51.044;13.780;2022-12-18T15:22:54;102137.38;;;-3.64;69.13
75609;BME280;64194;51.044;13.780;2022-12-18T15:26:56;102108.59;;;-3.73;69.61
75609;BME280;64194;51.044;13.780;2022-12-18T15:35:26;102129.13;;;-3.82;70.08
75609;BME280;64194;51.044;13.780;2022-12-18T15:39:27;102128.00;;;-3.92;70.14
75609;BME280;64194;51.044;13.780;2022-12-18T15:43:29;102111.47;;;-3.95;70.67
75609;BME280;64194;51.044;13.780;2022-12-18T15:47:35;102115.00;;;-3.93;70.71
75609;BME280;64194;51.044;13.780;2022-12-18T15:51:37;102093.97;;;-4.02;70.61
75609;BME280;64194;51.044;13.780;2022-12-18T15:55:39;102135.41;;;-4.05;71.25
75609;BME280;64194;51.044;13.780;2022-12-18T16:00:02;102113.72;;;-4.07;71.15
75609;BME280;64194;51.044;13.780;2022-12-18T16:04:05;102104.00;;;-4.14;71.60
75609;BME280;64194;51.044;13.780;2022-12-18T16:08:07;102102.28;;;-4.15;71.51
75609;BME280;64194;51.044;13.780;2022-12-18T16:12:21;102106.50;;;-4.19;71.53
75609;BME280;64194;51.044;13.780;2022-12-18T16:16:23;102085.78;;;-4.17;71.47
75609;BME280;64194;51.044;13.780;2022-12-18T16:20:26;102097.81;;;-4.21;71.73
75609;BME280;64194;51.044;13.780;2022-12-18T16:24:29;102087.97;;;-4.33;72.05
75609;BME280;64194;51.044;13.780;2022-12-18T16:28:31;102093.28;;;-4.28;72.22
75609;BME280;64194;51.044;13.780;2022-12-18T16:32:33;102103.72;;;-4.27;72.10
75609;BME280;64194;51.044;13.780;2022-12-18T16:36:34;102081.19;;;-4.28;71.92
75609;BME280;64194;51.044;13.780;2022-12-18T16:40:37;102078.56;;;-4.29;72.31
75609;BME280;64194;51.044;13.780;2022-12-18T16:44:59;102084.63;;;-4.29;72.80
75609;BME280;64194;51.044;13.780;2022-12-18T16:49:01;102095.00;;;-4.29;72.18
75609;BME280;64194;51.044;13.780;2022-12-18T16:53:02;102095.94;;;-4.27;72.09
75609;BME280;64194;51.044;13.780;2022-12-18T16:57:04;102093.34;;;-4.27;72.12
75609;BME280;64194;51.044;13.780;2022-12-18T17:01:10;102082.84;;;-4.31;72.41
75609;BME280;64194;51.044;13.780;2022-12-18T17:05:12;102075.13;;;-4.28;72.34
75609;BME280;64194;51.044;13.780;2022-12-18T17:09:14;102059.28;;;-4.39;72.93
75609;BME280;64194;51.044;13.780;2022-12-18T17:13:25;102062.03;;;-4.33;72.57
75609;BME280;64194;51.044;13.780;2022-12-18T17:17:27;102054.25;;;-4.33;72.33
75609;BME280;64194;51.044;13.780;2022-12-18T17:21:29;102063.81;;;-4.32;72.30
75609;BME280;64194;51.044;13.780;2022-12-18T17:25:31;102053.66;;;-4.23;72.95
75609;BME280;64194;51.044;13.780;2022-12-18T17:29:33;102051.56;;;-4.36;73.03
75609;BME280;64194;51.044;13.780;2022-12-18T17:33:34;102052.56;;;-4.31;72.98
75609;BME280;64194;51.044;13.780;2022-12-18T17:37:40;102045.59;;;-4.33;73.38
75609;BME280;64194;51.044;13.780;2022-12-18T17:41:41;102042.28;;;-4.28;73.50
75609;BME280;64194;51.044;13.780;2022-12-18T17:45:44;102067.41;;;-4.27;72.76
75609;BME280;64194;51.044;13.780;2022-12-18T17:49:45;102045.88;;;-4.23;72.92
75609;BME280;64194;51.044;13.780;2022-12-18T17:53:47;102047.47;;;-4.28;73.56
75609;BME280;64194;51.044;13.780;2022-12-18T17:57:49;102031.97;;;-4.25;73.19
75609;BME280;64194;51.044;13.780;2022-12-18T18:01:51;102039.09;;;-4.17;72.73
75609;BME280;64194;51.044;13.780;2022-12-18T18:05:59;102044.34;;;-4.16;72.73
75609;BME280;64194;51.044;13.780;2022-12-18T18:10:03;102034.91;;;-4.12;72.59
75609;BME280;64194;51.044;13.780;2022-12-18T18:14:09;102041.63;;;-4.19;72.84
75609;BME280;64194;51.044;13.780;2022-12-18T18:18:12;102026.34;;;-4.08;72.40
75609;BME280;64194;51.044;13.780;2022-12-18T18:22:15;102022.03;;;-4.08;72.39
75609;BME280;64194;51.044;13.780;2022-12-18T18:26:18;102041.09;;;-4.07;72.22
75609;BME280;64194;51.044;13.780;2022-12-18T18:30:20;102026.50;;;-4.02;71.70
75609;BME280;64194;51.044;13.780;2022-12-18T18:34:26;102011.88;;;-4.00;71.29
75609;BME280;64194;51.044;13.780;2022-12-18T18:38:28;102020.66;;;-3.95;71.37
75609;BME280;64194;51.044;13.780;2022-12-18T18:42:30;101985.25;;;-3.92;71.44
75609;BME280;64194;51.044;13.780;2022-12-18T18:46:32;101999.94;;;-3.92;71.50
75609;BME280;64194;51.044;13.780;2022-12-18T18:50:33;102000.00;;;-3.91;71.52
75609;BME280;64194;51.044;13.780;2022-12-18T18:54:35;101978.34;;;-3.91;71.23
75609;BME280;64194;51.044;13.780;2022-12-18T18:58:37;101998.97;;;-3.97;71.79
75609;BME280;64194;51.044;13.780;2022-12-18T19:02:39;101981.75;;;-3.94;71.39
75609;BME280;64194;51.044;13.780;2022-12-18T19:06:41;101968.69;;;-3.97;71.36
75609;BME280;64194;51.044;13.780;2022-12-18T19:10:43;101988.53;;;-4.00;72.05
